sensor_id;sensor_type;location;lat;lon;timestamp;P1;durP1;ratioP1;P2;durP2;ratioP2
2710;SDS011;20721;47.402;8.550;2022-10-17T00:01:55;4.09;;;4.09;;
2710;SDS011;20721;47.402;8.550;2022-10-17T00:02:54;4.01;;;4.01;;
2710;SDS011;20721;47.402;8.550;2022-10-17T00:03:54;4.05;;;4.05;;
2710;SDS011;20721;47.402;8.550;2022-10-17T00:04:54;4.74;;;4.74;;
2710;SDS011;20721;47.402;8.550;2022-10-17T00:05:55;4.24;;;4.24;;
2710;SDS011;20721;47.402;8.550;2022-10-17T00:06:54;4.62;;;4.62;;
2710;SDS011;20721;47.402;8.550;2022-10-17T00:07:54;4.22;;;4.22;;
2710;SDS011;20721;47.402;8.550;2022-10-17T00:08:54;4.50;;;4.50;;
2710;SDS011;20721;47.402;8.550;2022-10-17T00:11:54;3.55;;;3.55;;
2710;SDS011;20721;47.402;8.550;2022-10-17T00:12:54;3.67;;;3.67;;
2710;SDS011;20721;47.402;8.550;2022-10-17T00:13:55;3.74;;;3.74;;
2710;SDS011;20721;47.402;8.550;2022-10-17T00:14:54;4.51;;;4.51;;
2710;SDS011;20721;47.402;8.550;2022-10-17T00:15:54;4.37;;;4.37;;
2710;SDS011;20721;47.402;8.550;2022-10-17T00:16:56;4.08;;;4.08;;
2710;SDS011;20721;47.402;8.550;2022-10-17T00:19:54;4.33;;;4.33;;
2710;SDS011;20721;47.402;8.550;2022-10-17T00:20:54;4.67;;;4.67;;
2710;SDS011;20721;47.402;8.550;2022-10-17T00:21:54;4.40;;;4.40;;
2710;SDS011;20721;47.402;8.550;2022-10-17T00:22:55;4.44;;;4.44;;
2710;SDS011;20721;47.402;8.550;2022-10-17T00:23:55;4.30;;;4.30;;
2710;SDS011;20721;47.402;8.550;2022-10-17T00:24:55;3.80;;;3.80;;
2710;SDS011;20721;47.402;8.550;2022-10-17T00:25:59;3.94;;;3.94;;
2710;SDS011;20721;47.402;8.550;2022-10-17T00:27:54;4.43;;;4.43;;
2710;SDS011;20721;47.402;8.550;2022-10-17T00:28:56;3.32;;;3.32;;
2710;SDS011;20721;47.402;8.550;2022-10-17T00:29:58;4.19;;;4.19;;
2710;SDS011;20721;47.402;8.550;2022-10-17T00:30:55;4.33;;;4.33;;
2710;SDS011;20721;47.402;8.550;2022-10-17T00:31:55;4.01;;;4.01;;
2710;SDS011;20721;47.402;8.550;2022-10-17T00:32:55;3.83;;;3.83;;
2710;SDS011;20721;47.402;8.550;2022-10-17T00:34:56;3.72;;;3.72;;
2710;SDS011;20721;47.402;8.550;2022-10-17T00:36:54;4.58;;;4.58;;
2710;SDS011;20721;47.402;8.550;2022-10-17T00:39:55;4.57;;;4.57;;
2710;SDS011;20721;47.402;8.550;2022-10-17T00:40:55;4.64;;;4.64;;
2710;SDS011;20721;47.402;8.550;2022-10-17T00:42:55;4.15;;;4.15;;
2710;SDS011;20721;47.402;8.550;2022-10-17T00:44:01;4.22;;;4.22;;
2710;SDS011;20721;47.402;8.550;2022-10-17T00:44:58;4.03;;;4.03;;
2710;SDS011;20721;47.402;8.550;2022-10-17T00:46:55;4.63;;;4.63;;
2710;SDS011;20721;47.402;8.550;2022-10-17T00:48:00;4.50;;;4.50;;
2710;SDS011;20721;47.402;8.550;2022-10-17T00:48:55;4.12;;;4.12;;
2710;SDS011;20721;47.402;8.550;2022-10-17T00:51:02;3.90;;;3.90;;
2710;SDS011;20721;47.402;8.550;2022-10-17T00:51:59;3.91;;;3.91;;
2710;SDS011;20721;47.402;8.550;2022-10-17T00:52:56;3.82;;;3.82;;
2710;SDS011;20721;47.402;8.550;2022-10-17T00:53:57;3.98;;;3.98;;
2710;SDS011;20721;47.402;8.550;2022-10-17T00:55:58;3.36;;;3.36;;
2710;SDS011;20721;47.402;8.550;2022-10-17T00:56:55;4.16;;;4.16;;
2710;SDS011;20721;47.402;8.550;2022-10-17T00:57:56;4.35;;;4.35;;
2710;SDS011;20721;47.402;8.550;2022-10-17T00:58:55;4.34;;;4.34;;
2710;SDS011;20721;47.402;8.550;2022-10-17T00:59:58;4.57;;;4.57;;
2710;SDS011;20721;47.402;8.550;2022-10-17T01:02:05;4.38;;;4.38;;
2710;SDS011;20721;47.402;8.550;2022-10-17T01:02:55;3.91;;;3.91;;
2710;SDS011;20721;47.402;8.550;2022-10-17T01:03:55;3.55;;;3.55;;
2710;SDS011;20721;47.402;8.550;2022-10-17T01:04:56;3.57;;;3.57;;
2710;SDS011;20721;47.402;8.550;2022-10-17T01:05:55;3.81;;;3.81;;
2710;SDS011;20721;47.402;8.550;2022-10-17T01:06:55;3.65;;;3.65;;
2710;SDS011;20721;47.402;8.550;2022-10-17T01:08:55;3.74;;;3.74;;
2710;SDS011;20721;47.402;8.550;2022-10-17T01:11:23;4.27;;;4.27;;
2710;SDS011;20721;47.402;8.550;2022-10-17T01:12:06;4.23;;;4.23;;
2710;SDS011;20721;47.402;8.550;2022-10-17T01:13:10;4.69;;;4.69;;
2710;SDS011;20721;47.402;8.550;2022-10-17T01:14:03;3.97;;;3.97;;
2710;SDS011;20721;47.402;8.550;2022-10-17T01:15:13;4.08;;;4.08;;
2710;SDS011;20721;47.402;8.550;2022-10-17T01:15:58;4.06;;;4.06;;
2710;SDS011;20721;47.402;8.550;2022-10-17T01:24:13;3.36;;;3.36;;
2710;SDS011;20721;47.402;8.550;2022-10-17T01:29:04;3.54;;;3.54;;
2710;SDS011;20721;47.402;8.550;2022-10-17T01:34:07;3.40;;;3.40;;
2710;SDS011;20721;47.402;8.550;2022-10-17T01:35:06;3.47;;;3.47;;
2710;SDS011;20721;47.402;8.550;2022-10-17T01:38:03;3.42;;;3.42;;
2710;SDS011;20721;47.402;8.550;2022-10-17T01:38:59;3.86;;;3.86;;
2710;SDS011;20721;47.402;8.550;2022-10-17T01:43:59;3.33;;;3.33;;
2710;SDS011;20721;47.402;8.550;2022-10-17T01:46:00;3.39;;;3.39;;
2710;SDS011;20721;47.402;8.550;2022-10-17T01:47:00;3.45;;;3.45;;
2710;SDS011;20721;47.402;8.550;2022-10-17T01:47:57;3.25;;;3.25;;
2710;SDS011;20721;47.402;8.550;2022-10-17T01:49:57;2.84;;;2.84;;
2710;SDS011;20721;47.402;8.550;2022-10-17T01:51:02;3.05;;;3.05;;
2710;SDS011;20721;47.402;8.550;2022-10-17T01:51:59;3.43;;;3.43;;
2710;SDS011;20721;47.402;8.550;2022-10-17T01:53:00;3.40;;;3.40;;
2710;SDS011;20721;47.402;8.550;2022-10-17T01:54:00;3.87;;;3.87;;
2710;SDS011;20721;47.402;8.550;2022-10-17T01:55:02;3.67;;;3.67;;
2710;SDS011;20721;47.402;8.550;2022-10-17T01:55:58;3.62;;;3.62;;
2710;SDS011;20721;47.402;8.550;2022-10-17T01:56:58;3.50;;;3.50;;
2710;SDS011;20721;47.402;8.550;2022-10-17T01:59:57;3.39;;;3.39;;
2710;SDS011;20721;47.402;8.550;2022-10-17T02:00:57;3.45;;;3.45;;
2710;SDS011;20721;47.402;8.550;2022-10-17T02:02:01;3.25;;;3.25;;
2710;SDS011;20721;47.402;8.550;2022-10-17T02:02:58;3.62;;;3.62;;
2710;SDS011;20721;47.402;8.550;2022-10-17T02:03:57;3.16;;;3.16;;
2710;SDS011;20721;47.402;8.550;2022-10-17T02:04:56;3.66;;;3.66;;
2710;SDS011;20721;47.402;8.550;2022-10-17T02:05:55;3.48;;;3.48;;
2710;SDS011;20721;47.402;8.550;2022-10-17T02:06:55;3.17;;;3.17;;
2710;SDS011;20721;47.402;8.550;2022-10-17T02:08:56;3.64;;;3.64;;
2710;SDS011;20721;47.402;8.550;2022-10-17T02:09:55;3.10;;;3.10;;
2710;SDS011;20721;47.402;8.550;2022-10-17T02:11:03;3.77;;;3.77;;
2710;SDS011;20721;47.402;8.550;2022-10-17T02:12:03;3.37;;;3.37;;
2710;SDS011;20721;47.402;8.550;2022-10-17T02:14:03;3.87;;;3.87;;
2710;SDS011;20721;47.402;8.550;2022-10-17T02:15:06;3.86;;;3.86;;
2710;SDS011;20721;47.402;8.550;2022-10-17T02:17:03;4.30;;;4.30;;
2710;SDS011;20721;47.402;8.550;2022-10-17T02:21:06;4.06;;;4.06;;
2710;SDS011;20721;47.402;8.550;2022-10-17T02:26:05;4.25;;;4.25;;
2710;SDS011;20721;47.402;8.550;2022-10-17T02:27:08;3.97;;;3.97;;
2710;SDS011;20721;47.402;8.550;2022-10-17T02:29:04;4.02;;;4.02;;
2710;SDS011;20721;47.402;8.550;2022-10-17T02:31:05;4.39;;;4.39;;
2710;SDS011;20721;47.402;8.550;2022-10-17T02:32:00;4.31;;;4.31;;
2710;SDS011;20721;47.402;8.550;2022-10-17T02:34:56;4.56;;;4.56;;
2710;SDS011;20721;47.402;8.550;2022-10-17T02:35:58;5.11;;;5.11;;
2710;SDS011;20721;47.402;8.550;2022-10-17T02:36:59;4.89;;;4.88;;
2710;SDS011;20721;47.402;8.550;2022-10-17T02:37:56;4.39;;;4.36;;
2710;SDS011;20721;47.402;8.550;2022-10-17T02:39:56;4.54;;;4.54;;
2710;SDS011;20721;47.402;8.550;2022-10-17T02:40:55;4.64;;;4.64;;
2710;SDS011;20721;47.402;8.550;2022-10-17T02:41:57;4.22;;;4.22;;
2710;SDS011;20721;47.402;8.550;2022-10-17T02:42:55;4.25;;;4.25;;
2710;SDS011;20721;47.402;8.550;2022-10-17T02:43:58;4.50;;;4.50;;
2710;SDS011;20721;47.402;8.550;2022-10-17T02:44:58;4.66;;;4.66;;
2710;SDS011;20721;47.402;8.550;2022-10-17T02:47:58;4.08;;;4.08;;
2710;SDS011;20721;47.402;8.550;2022-10-17T02:49:20;4.68;;;4.68;;
2710;SDS011;20721;47.402;8.550;2022-10-17T02:56:00;5.14;;;5.14;;
2710;SDS011;20721;47.402;8.550;2022-10-17T02:57:02;5.21;;;5.21;;
2710;SDS011;20721;47.402;8.550;2022-10-17T02:57:57;4.87;;;4.87;;
2710;SDS011;20721;47.402;8.550;2022-10-17T02:58:58;4.57;;;4.57;;
2710;SDS011;20721;47.402;8.550;2022-10-17T03:00:55;5.08;;;5.08;;
2710;SDS011;20721;47.402;8.550;2022-10-17T03:01:55;5.78;;;5.78;;
2710;SDS011;20721;47.402;8.550;2022-10-17T03:02:58;5.56;;;5.56;;
2710;SDS011;20721;47.402;8.550;2022-10-17T03:05:55;4.83;;;4.83;;
2710;SDS011;20721;47.402;8.550;2022-10-17T03:07:55;4.31;;;4.31;;
2710;SDS011;20721;47.402;8.550;2022-10-17T03:08:55;4.66;;;4.66;;
2710;SDS011;20721;47.402;8.550;2022-10-17T03:09:55;4.82;;;4.82;;
2710;SDS011;20721;47.402;8.550;2022-10-17T03:10:55;4.43;;;4.43;;
2710;SDS011;20721;47.402;8.550;2022-10-17T03:11:55;4.78;;;4.78;;
2710;SDS011;20721;47.402;8.550;2022-10-17T03:12:55;3.78;;;3.78;;
2710;SDS011;20721;47.402;8.550;2022-10-17T03:13:55;4.24;;;4.24;;
2710;SDS011;20721;47.402;8.550;2022-10-17T03:16:55;4.84;;;4.84;;
2710;SDS011;20721;47.402;8.550;2022-10-17T03:17:55;4.00;;;4.00;;
2710;SDS011;20721;47.402;8.550;2022-10-17T03:19:03;4.60;;;4.60;;
2710;SDS011;20721;47.402;8.550;2022-10-17T03:19:55;4.77;;;4.77;;
2710;SDS011;20721;47.402;8.550;2022-10-17T03:20:55;4.40;;;4.40;;
2710;SDS011;20721;47.402;8.550;2022-10-17T03:21:58;4.29;;;4.29;;
2710;SDS011;20721;47.402;8.550;2022-10-17T03:25:55;4.37;;;4.37;;
2710;SDS011;20721;47.402;8.550;2022-10-17T03:26:55;4.69;;;4.69;;
2710;SDS011;20721;47.402;8.550;2022-10-17T03:28:55;3.91;;;3.91;;
2710;SDS011;20721;47.402;8.550;2022-10-17T03:29:55;4.83;;;4.83;;
2710;SDS011;20721;47.402;8.550;2022-10-17T03:30:55;4.54;;;4.54;;
2710;SDS011;20721;47.402;8.550;2022-10-17T03:32:56;4.82;;;4.82;;
2710;SDS011;20721;47.402;8.550;2022-10-17T03:33:55;4.98;;;4.98;;
2710;SDS011;20721;47.402;8.550;2022-10-17T03:34:55;4.77;;;4.77;;
2710;SDS011;20721;47.402;8.550;2022-10-17T03:35:55;4.69;;;4.69;;
2710;SDS011;20721;47.402;8.550;2022-10-17T03:36:55;4.74;;;4.74;;
2710;SDS011;20721;47.402;8.550;2022-10-17T03:37:55;4.72;;;4.72;;
2710;SDS011;20721;47.402;8.550;2022-10-17T03:39:55;4.97;;;4.97;;
2710;SDS011;20721;47.402;8.550;2022-10-17T03:41:03;5.28;;;5.28;;
2710;SDS011;20721;47.402;8.550;2022-10-17T03:41:55;4.96;;;4.96;;
2710;SDS011;20721;47.402;8.550;2022-10-17T03:42:55;4.85;;;4.85;;
2710;SDS011;20721;47.402;8.550;2022-10-17T03:43:55;5.20;;;5.20;;
2710;SDS011;20721;47.402;8.550;2022-10-17T03:45:56;4.60;;;4.60;;
2710;SDS011;20721;47.402;8.550;2022-10-17T03:46:55;4.40;;;4.40;;
2710;SDS011;20721;47.402;8.550;2022-10-17T03:47:55;5.75;;;5.75;;
2710;SDS011;20721;47.402;8.550;2022-10-17T03:48:55;4.93;;;4.93;;
2710;SDS011;20721;47.402;8.550;2022-10-17T03:49:55;4.21;;;4.21;;
2710;SDS011;20721;47.402;8.550;2022-10-17T03:50:59;4.50;;;4.50;;
2710;SDS011;20721;47.402;8.550;2022-10-17T03:51:55;5.50;;;5.50;;
2710;SDS011;20721;47.402;8.550;2022-10-17T03:53:55;5.42;;;5.42;;
2710;SDS011;20721;47.402;8.550;2022-10-17T03:54:55;4.97;;;4.97;;
2710;SDS011;20721;47.402;8.550;2022-10-17T03:55:56;4.99;;;4.99;;
2710;SDS011;20721;47.402;8.550;2022-10-17T03:56:55;4.47;;;4.47;;
2710;SDS011;20721;47.402;8.550;2022-10-17T03:57:56;4.16;;;4.16;;
2710;SDS011;20721;47.402;8.550;2022-10-17T03:58:58;4.27;;;4.27;;
2710;SDS011;20721;47.402;8.550;2022-10-17T04:00:55;4.14;;;4.14;;
2710;SDS011;20721;47.402;8.550;2022-10-17T04:04:04;4.61;;;4.61;;
2710;SDS011;20721;47.402;8.550;2022-10-17T04:04:55;4.94;;;4.94;;
2710;SDS011;20721;47.402;8.550;2022-10-17T04:09:55;4.05;;;4.05;;
2710;SDS011;20721;47.402;8.550;2022-10-17T04:10:57;4.13;;;4.13;;
2710;SDS011;20721;47.402;8.550;2022-10-17T04:11:55;4.86;;;4.86;;
2710;SDS011;20721;47.402;8.550;2022-10-17T04:12:55;4.74;;;4.74;;
2710;SDS011;20721;47.402;8.550;2022-10-17T04:14:55;4.41;;;4.41;;
2710;SDS011;20721;47.402;8.550;2022-10-17T04:16:55;4.24;;;4.24;;
2710;SDS011;20721;47.402;8.550;2022-10-17T04:17:56;4.11;;;4.11;;
2710;SDS011;20721;47.402;8.550;2022-10-17T04:18:57;4.91;;;4.91;;
2710;SDS011;20721;47.402;8.550;2022-10-17T04:22:55;4.28;;;4.28;;
2710;SDS011;20721;47.402;8.550;2022-10-17T04:23:56;4.80;;;4.80;;
2710;SDS011;20721;47.402;8.550;2022-10-17T04:24:55;4.41;;;4.41;;
2710;SDS011;20721;47.402;8.550;2022-10-17T04:25:56;4.88;;;4.88;;
2710;SDS011;20721;47.402;8.550;2022-10-17T04:27:55;4.61;;;4.61;;
2710;SDS011;20721;47.402;8.550;2022-10-17T04:28:55;4.51;;;4.51;;
2710;SDS011;20721;47.402;8.550;2022-10-17T04:29:58;4.84;;;4.84;;
2710;SDS011;20721;47.402;8.550;2022-10-17T04:31:55;4.75;;;4.75;;
2710;SDS011;20721;47.402;8.550;2022-10-17T04:33:56;5.27;;;5.27;;
2710;SDS011;20721;47.402;8.550;2022-10-17T04:34:58;5.79;;;5.79;;
2710;SDS011;20721;47.402;8.550;2022-10-17T04:36:12;5.53;;;5.53;;
2710;SDS011;20721;47.402;8.550;2022-10-17T04:36:56;5.47;;;5.47;;
2710;SDS011;20721;47.402;8.550;2022-10-17T04:37:55;5.38;;;5.38;;
2710;SDS011;20721;47.402;8.550;2022-10-17T04:40:57;5.49;;;5.49;;
2710;SDS011;20721;47.402;8.550;2022-10-17T04:41:55;4.75;;;4.75;;
2710;SDS011;20721;47.402;8.550;2022-10-17T04:42:55;5.23;;;5.23;;
2710;SDS011;20721;47.402;8.550;2022-10-17T04:44:01;4.66;;;4.66;;
2710;SDS011;20721;47.402;8.550;2022-10-17T04:44:55;4.83;;;4.83;;
2710;SDS011;20721;47.402;8.550;2022-10-17T04:45:57;5.28;;;5.28;;
2710;SDS011;20721;47.402;8.550;2022-10-17T04:46:55;4.98;;;4.98;;
2710;SDS011;20721;47.402;8.550;2022-10-17T04:47:55;5.13;;;5.13;;
2710;SDS011;20721;47.402;8.550;2022-10-17T04:48:55;5.10;;;5.10;;
2710;SDS011;20721;47.402;8.550;2022-10-17T04:49:55;4.80;;;4.80;;
2710;SDS011;20721;47.402;8.550;2022-10-17T04:51:05;4.88;;;4.88;;
2710;SDS011;20721;47.402;8.550;2022-10-17T04:51:55;4.86;;;4.86;;
2710;SDS011;20721;47.402;8.550;2022-10-17T04:52:55;5.74;;;5.74;;
2710;SDS011;20721;47.402;8.550;2022-10-17T04:53:55;5.92;;;5.92;;
2710;SDS011;20721;47.402;8.550;2022-10-17T04:54:55;5.44;;;5.44;;
2710;SDS011;20721;47.402;8.550;2022-10-17T04:55:55;5.54;;;5.54;;
2710;SDS011;20721;47.402;8.550;2022-10-17T04:56:56;5.29;;;5.29;;
2710;SDS011;20721;47.402;8.550;2022-10-17T04:57:55;6.11;;;6.11;;
2710;SDS011;20721;47.402;8.550;2022-10-17T04:58:57;5.19;;;5.19;;
2710;SDS011;20721;47.402;8.550;2022-10-17T05:00:55;6.04;;;6.04;;
2710;SDS011;20721;47.402;8.550;2022-10-17T05:01:57;5.71;;;5.71;;
2710;SDS011;20721;47.402;8.550;2022-10-17T05:03:55;5.61;;;5.61;;
2710;SDS011;20721;47.402;8.550;2022-10-17T05:04:55;5.56;;;5.56;;
2710;SDS011;20721;47.402;8.550;2022-10-17T05:06:59;5.56;;;5.56;;
2710;SDS011;20721;47.402;8.550;2022-10-17T05:07:55;5.46;;;5.46;;
2710;SDS011;20721;47.402;8.550;2022-10-17T05:08:56;5.37;;;5.37;;
2710;SDS011;20721;47.402;8.550;2022-10-17T05:09:55;5.36;;;5.36;;
2710;SDS011;20721;47.402;8.550;2022-10-17T05:10:55;5.94;;;5.94;;
2710;SDS011;20721;47.402;8.550;2022-10-17T05:12:58;4.72;;;4.72;;
2710;SDS011;20721;47.402;8.550;2022-10-17T05:14:55;5.40;;;5.40;;
2710;SDS011;20721;47.402;8.550;2022-10-17T05:15:59;5.25;;;5.25;;
2710;SDS011;20721;47.402;8.550;2022-10-17T05:19:03;4.79;;;4.79;;
2710;SDS011;20721;47.402;8.550;2022-10-17T05:19:55;5.20;;;5.20;;
2710;SDS011;20721;47.402;8.550;2022-10-17T05:20:55;5.49;;;5.49;;
2710;SDS011;20721;47.402;8.550;2022-10-17T05:21:55;4.68;;;4.68;;
2710;SDS011;20721;47.402;8.550;2022-10-17T05:23:55;5.48;;;5.48;;
2710;SDS011;20721;47.402;8.550;2022-10-17T05:25:55;5.23;;;5.23;;
2710;SDS011;20721;47.402;8.550;2022-10-17T05:27:55;5.55;;;5.55;;
2710;SDS011;20721;47.402;8.550;2022-10-17T05:28:55;5.64;;;5.64;;
2710;SDS011;20721;47.402;8.550;2022-10-17T05:29:55;6.01;;;6.01;;
2710;SDS011;20721;47.402;8.550;2022-10-17T05:33:59;5.71;;;5.71;;
2710;SDS011;20721;47.402;8.550;2022-10-17T05:34:55;6.30;;;6.30;;
2710;SDS011;20721;47.402;8.550;2022-10-17T05:40:56;6.35;;;6.35;;
2710;SDS011;20721;47.402;8.550;2022-10-17T05:41:55;5.46;;;5.46;;
2710;SDS011;20721;47.402;8.550;2022-10-17T05:42:56;6.73;;;6.73;;
2710;SDS011;20721;47.402;8.550;2022-10-17T05:43:59;6.52;;;6.52;;
2710;SDS011;20721;47.402;8.550;2022-10-17T05:44:55;6.23;;;6.23;;
2710;SDS011;20721;47.402;8.550;2022-10-17T05:45:55;5.94;;;5.94;;
2710;SDS011;20721;47.402;8.550;2022-10-17T05:46:57;6.95;;;6.95;;
2710;SDS011;20721;47.402;8.550;2022-10-17T05:47:55;8.03;;;8.03;;
2710;SDS011;20721;47.402;8.550;2022-10-17T05:48:55;7.40;;;7.40;;
2710;SDS011;20721;47.402;8.550;2022-10-17T05:51:55;7.09;;;7.03;;
2710;SDS011;20721;47.402;8.550;2022-10-17T05:53:55;7.31;;;7.31;;
2710;SDS011;20721;47.402;8.550;2022-10-17T05:56:04;6.67;;;6.67;;
2710;SDS011;20721;47.402;8.550;2022-10-17T05:57:00;6.60;;;6.57;;
2710;SDS011;20721;47.402;8.550;2022-10-17T05:57:55;5.61;;;5.61;;
2710;SDS011;20721;47.402;8.550;2022-10-17T05:59:01;5.61;;;5.61;;
2710;SDS011;20721;47.402;8.550;2022-10-17T05:59:55;5.95;;;5.95;;
2710;SDS011;20721;47.402;8.550;2022-10-17T06:01:56;6.10;;;6.10;;
2710;SDS011;20721;47.402;8.550;2022-10-17T06:04:57;5.46;;;5.46;;
2710;SDS011;20721;47.402;8.550;2022-10-17T06:07:55;6.40;;;6.40;;
2710;SDS011;20721;47.402;8.550;2022-10-17T06:08:55;6.02;;;6.02;;
2710;SDS011;20721;47.402;8.550;2022-10-17T06:09:55;5.99;;;5.99;;
2710;SDS011;20721;47.402;8.550;2022-10-17T06:10:57;5.69;;;5.69;;
2710;SDS011;20721;47.402;8.550;2022-10-17T06:11:55;5.98;;;5.98;;
2710;SDS011;20721;47.402;8.550;2022-10-17T06:12:55;6.41;;;6.40;;
2710;SDS011;20721;47.402;8.550;2022-10-17T06:13:55;7.13;;;7.10;;
2710;SDS011;20721;47.402;8.550;2022-10-17T06:14:55;6.75;;;6.75;;
2710;SDS011;20721;47.402;8.550;2022-10-17T06:16:55;5.89;;;5.89;;
2710;SDS011;20721;47.402;8.550;2022-10-17T06:17:55;6.36;;;6.36;;
2710;SDS011;20721;47.402;8.550;2022-10-17T06:18:55;6.98;;;6.98;;
2710;SDS011;20721;47.402;8.550;2022-10-17T06:19:55;6.24;;;6.24;;
2710;SDS011;20721;47.402;8.550;2022-10-17T06:21:03;6.21;;;6.21;;
2710;SDS011;20721;47.402;8.550;2022-10-17T06:22:55;7.03;;;7.03;;
2710;SDS011;20721;47.402;8.550;2022-10-17T06:23:56;5.87;;;5.87;;
2710;SDS011;20721;47.402;8.550;2022-10-17T06:24:55;6.60;;;6.60;;
2710;SDS011;20721;47.402;8.550;2022-10-17T06:25:57;6.50;;;6.50;;
2710;SDS011;20721;47.402;8.550;2022-10-17T06:26:59;5.95;;;5.95;;
2710;SDS011;20721;47.402;8.550;2022-10-17T06:27:55;5.52;;;5.52;;
2710;SDS011;20721;47.402;8.550;2022-10-17T06:28:56;6.11;;;6.11;;
2710;SDS011;20721;47.402;8.550;2022-10-17T06:29:56;6.38;;;6.36;;
2710;SDS011;20721;47.402;8.550;2022-10-17T06:30:55;6.46;;;6.44;;
2710;SDS011;20721;47.402;8.550;2022-10-17T06:31:56;6.30;;;6.30;;
2710;SDS011;20721;47.402;8.550;2022-10-17T06:33:55;5.95;;;5.95;;
2710;SDS011;20721;47.402;8.550;2022-10-17T06:34:55;7.09;;;7.09;;
2710;SDS011;20721;47.402;8.550;2022-10-17T06:36:05;5.91;;;5.91;;
2710;SDS011;20721;47.402;8.550;2022-10-17T06:36:56;7.64;;;7.64;;
2710;SDS011;20721;47.402;8.550;2022-10-17T06:37:55;7.69;;;7.69;;
2710;SDS011;20721;47.402;8.550;2022-10-17T06:39:55;9.04;;;8.99;;
2710;SDS011;20721;47.402;8.550;2022-10-17T06:41:15;8.46;;;8.42;;
2710;SDS011;20721;47.402;8.550;2022-10-17T06:42:56;7.14;;;7.14;;
2710;SDS011;20721;47.402;8.550;2022-10-17T06:43:56;6.77;;;6.77;;
2710;SDS011;20721;47.402;8.550;2022-10-17T06:44:55;6.73;;;6.73;;
2710;SDS011;20721;47.402;8.550;2022-10-17T06:45:56;6.97;;;6.95;;
2710;SDS011;20721;47.402;8.550;2022-10-17T06:47:55;7.04;;;7.04;;
2710;SDS011;20721;47.402;8.550;2022-10-17T06:48:56;7.03;;;7.03;;
2710;SDS011;20721;47.402;8.550;2022-10-17T06:49:55;6.91;;;6.91;;
2710;SDS011;20721;47.402;8.550;2022-10-17T06:50:59;8.05;;;8.05;;
2710;SDS011;20721;47.402;8.550;2022-10-17T06:51:55;7.48;;;7.48;;
2710;SDS011;20721;47.402;8.550;2022-10-17T06:52:59;6.82;;;6.82;;
2710;SDS011;20721;47.402;8.550;2022-10-17T06:53:56;7.01;;;7.01;;
2710;SDS011;20721;47.402;8.550;2022-10-17T06:54:56;6.90;;;6.90;;
2710;SDS011;20721;47.402;8.550;2022-10-17T06:56:00;7.61;;;7.61;;
2710;SDS011;20721;47.402;8.550;2022-10-17T06:56:55;7.03;;;6.99;;
2710;SDS011;20721;47.402;8.550;2022-10-17T06:58:03;7.03;;;7.00;;
2710;SDS011;20721;47.402;8.550;2022-10-17T06:58:57;7.15;;;7.15;;
2710;SDS011;20721;47.402;8.550;2022-10-17T06:59:55;7.46;;;7.46;;
2710;SDS011;20721;47.402;8.550;2022-10-17T07:00:57;6.85;;;6.85;;
2710;SDS011;20721;47.402;8.550;2022-10-17T07:01:57;7.29;;;7.28;;
2710;SDS011;20721;47.402;8.550;2022-10-17T07:02:56;7.63;;;7.63;;
2710;SDS011;20721;47.402;8.550;2022-10-17T07:03:59;7.84;;;7.83;;
2710;SDS011;20721;47.402;8.550;2022-10-17T07:04:56;7.51;;;7.49;;
2710;SDS011;20721;47.402;8.550;2022-10-17T07:06:00;6.60;;;6.60;;
2710;SDS011;20721;47.402;8.550;2022-10-17T07:06:56;6.42;;;6.42;;
2710;SDS011;20721;47.402;8.550;2022-10-17T07:07:59;7.61;;;7.61;;
2710;SDS011;20721;47.402;8.550;2022-10-17T07:08:56;7.15;;;7.15;;
2710;SDS011;20721;47.402;8.550;2022-10-17T07:09:55;6.88;;;6.88;;
2710;SDS011;20721;47.402;8.550;2022-10-17T07:10:56;6.81;;;6.81;;
2710;SDS011;20721;47.402;8.550;2022-10-17T07:11:56;7.31;;;7.31;;
2710;SDS011;20721;47.402;8.550;2022-10-17T07:12:56;7.20;;;7.20;;
2710;SDS011;20721;47.402;8.550;2022-10-17T07:13:56;6.83;;;6.83;;
2710;SDS011;20721;47.402;8.550;2022-10-17T07:14:56;7.36;;;7.36;;
2710;SDS011;20721;47.402;8.550;2022-10-17T07:15:56;7.08;;;7.08;;
2710;SDS011;20721;47.402;8.550;2022-10-17T07:16:56;7.47;;;7.47;;
2710;SDS011;20721;47.402;8.550;2022-10-17T07:17:57;7.19;;;7.19;;
2710;SDS011;20721;47.402;8.550;2022-10-17T07:18:58;7.08;;;7.08;;
2710;SDS011;20721;47.402;8.550;2022-10-17T07:19:56;6.78;;;6.78;;
2710;SDS011;20721;47.402;8.550;2022-10-17T07:21:03;6.76;;;6.76;;
2710;SDS011;20721;47.402;8.550;2022-10-17T07:21:56;6.81;;;6.81;;
2710;SDS011;20721;47.402;8.550;2022-10-17T07:22:56;6.41;;;6.41;;
2710;SDS011;20721;47.402;8.550;2022-10-17T07:23:56;8.22;;;8.22;;
2710;SDS011;20721;47.402;8.550;2022-10-17T07:24:56;6.90;;;6.90;;
2710;SDS011;20721;47.402;8.550;2022-10-17T07:25:59;7.14;;;7.14;;
2710;SDS011;20721;47.402;8.550;2022-10-17T07:26:56;7.33;;;7.33;;
2710;SDS011;20721;47.402;8.550;2022-10-17T07:27:57;7.68;;;7.68;;
2710;SDS011;20721;47.402;8.550;2022-10-17T07:28:59;7.21;;;7.21;;
2710;SDS011;20721;47.402;8.550;2022-10-17T07:29:55;6.89;;;6.89;;
2710;SDS011;20721;47.402;8.550;2022-10-17T07:31:03;6.89;;;6.89;;
2710;SDS011;20721;47.402;8.550;2022-10-17T07:31:57;7.47;;;7.47;;
2710;SDS011;20721;47.402;8.550;2022-10-17T07:32:56;7.55;;;7.55;;
2710;SDS011;20721;47.402;8.550;2022-10-17T07:35:00;6.96;;;6.96;;
2710;SDS011;20721;47.402;8.550;2022-10-17T07:35:57;7.15;;;7.15;;
2710;SDS011;20721;47.402;8.550;2022-10-17T07:36:56;6.90;;;6.90;;
2710;SDS011;20721;47.402;8.550;2022-10-17T07:37:56;6.94;;;6.94;;
2710;SDS011;20721;47.402;8.550;2022-10-17T07:38:56;7.06;;;7.06;;
2710;SDS011;20721;47.402;8.550;2022-10-17T07:39:56;7.19;;;7.19;;
2710;SDS011;20721;47.402;8.550;2022-10-17T07:41:03;7.45;;;7.45;;
2710;SDS011;20721;47.402;8.550;2022-10-17T07:41:57;6.51;;;6.51;;
2710;SDS011;20721;47.402;8.550;2022-10-17T07:42:56;6.53;;;6.53;;
2710;SDS011;20721;47.402;8.550;2022-10-17T07:44:56;6.63;;;6.63;;
2710;SDS011;20721;47.402;8.550;2022-10-17T07:45:56;6.63;;;6.63;;
2710;SDS011;20721;47.402;8.550;2022-10-17T07:46:56;6.09;;;6.09;;
2710;SDS011;20721;47.402;8.550;2022-10-17T07:47:56;7.16;;;7.16;;
2710;SDS011;20721;47.402;8.550;2022-10-17T07:48:56;7.23;;;7.23;;
2710;SDS011;20721;47.402;8.550;2022-10-17T07:49:56;7.05;;;7.05;;
2710;SDS011;20721;47.402;8.550;2022-10-17T07:50:56;6.87;;;6.87;;
2710;SDS011;20721;47.402;8.550;2022-10-17T07:51:57;6.96;;;6.96;;
2710;SDS011;20721;47.402;8.550;2022-10-17T07:52:56;6.65;;;6.65;;
2710;SDS011;20721;47.402;8.550;2022-10-17T07:53:59;6.52;;;6.52;;
2710;SDS011;20721;47.402;8.550;2022-10-17T07:54:56;7.13;;;7.13;;
2710;SDS011;20721;47.402;8.550;2022-10-17T07:55:57;7.19;;;7.19;;
2710;SDS011;20721;47.402;8.550;2022-10-17T07:56:59;6.28;;;6.28;;
2710;SDS011;20721;47.402;8.550;2022-10-17T07:57:56;6.62;;;6.62;;
2710;SDS011;20721;47.402;8.550;2022-10-17T07:58:57;7.18;;;7.18;;
2710;SDS011;20721;47.402;8.550;2022-10-17T07:59:57;7.17;;;7.17;;
2710;SDS011;20721;47.402;8.550;2022-10-17T08:00:59;7.26;;;7.26;;
2710;SDS011;20721;47.402;8.550;2022-10-17T08:01:56;7.02;;;7.02;;
2710;SDS011;20721;47.402;8.550;2022-10-17T08:02:56;7.22;;;7.22;;
2710;SDS011;20721;47.402;8.550;2022-10-17T08:03:56;7.49;;;7.44;;
2710;SDS011;20721;47.402;8.550;2022-10-17T08:04:56;7.46;;;7.37;;
2710;SDS011;20721;47.402;8.550;2022-10-17T08:05:56;7.40;;;7.36;;
2710;SDS011;20721;47.402;8.550;2022-10-17T08:06:56;7.32;;;7.29;;
2710;SDS011;20721;47.402;8.550;2022-10-17T08:07:56;8.48;;;8.48;;
2710;SDS011;20721;47.402;8.550;2022-10-17T08:08:56;7.69;;;7.69;;
2710;SDS011;20721;47.402;8.550;2022-10-17T08:09:56;7.76;;;7.76;;
2710;SDS011;20721;47.402;8.550;2022-10-17T08:11:00;7.55;;;7.55;;
2710;SDS011;20721;47.402;8.550;2022-10-17T08:12:00;7.27;;;7.27;;
2710;SDS011;20721;47.402;8.550;2022-10-17T08:12:56;7.56;;;7.56;;
2710;SDS011;20721;47.402;8.550;2022-10-17T08:13:56;7.54;;;7.53;;
2710;SDS011;20721;47.402;8.550;2022-10-17T08:14:57;7.65;;;7.65;;
2710;SDS011;20721;47.402;8.550;2022-10-17T08:16:56;7.91;;;7.91;;
2710;SDS011;20721;47.402;8.550;2022-10-17T08:18:00;7.72;;;7.72;;
2710;SDS011;20721;47.402;8.550;2022-10-17T08:18:56;8.57;;;8.57;;